sensor_id;sensor_type;location;lat;lon;timestamp;temperature;humidity
14357;DHT22;7262;48.764;9.166;2023-06-10T00:00:11;17.70;99.90
14357;DHT22;7262;48.764;9.166;2023-06-10T00:02:40;17.70;99.90
14357;DHT22;7262;48.764;9.166;2023-06-10T00:05:09;17.60;99.90
14357;DHT22;7262;48.764;9.166;2023-06-10T00:07:36;17.50;99.90
14357;DHT22;7262;48.764;9.166;2023-06-10T00:10:03;17.50;99.90
14357;DHT22;7262;48.764;9.166;2023-06-10T00:12:31;17.50;99.90
14357;DHT22;7262;48.764;9.166;2023-06-10T00:15:02;17.50;99.90
14357;DHT22;7262;48.764;9.166;2023-06-10T00:17:29;17.50;99.90
14357;DHT22;7262;48.764;9.166;2023-06-10T00:19:59;17.50;99.90
14357;DHT22;7262;48.764;9.166;2023-06-10T00:22:31;17.40;99.90
14357;DHT22;7262;48.764;9.166;2023-06-10T00:24:57;17.30;99.90
14357;DHT22;7262;48.764;9.166;2023-06-10T00:29:55;17.30;99.90
14357;DHT22;7262;48.764;9.166;2023-06-10T00:32:23;17.30;99.90
14357;DHT22;7262;48.764;9.166;2023-06-10T00:34:50;17.30;99.90
14357;DHT22;7262;48.764;9.166;2023-06-10T00:37:17;17.30;99.90
14357;DHT22;7262;48.764;9.166;2023-06-10T00:39:45;17.20;99.90
14357;DHT22;7262;48.764;9.166;2023-06-10T00:42:12;17.10;99.90
14357;DHT22;7262;48.764;9.166;2023-06-10T00:44:38;17.10;99.90
14357;DHT22;7262;48.764;9.166;2023-06-10T00:47:05;17.10;99.90
14357;DHT22;7262;48.764;9.166;2023-06-10T00:49:32;17.00;99.90
14357;DHT22;7262;48.764;9.166;2023-06-10T00:51:59;17.00;99.90
14357;DHT22;7262;48.764;9.166;2023-06-10T00:54:27;17.00;99.90
14357;DHT22;7262;48.764;9.166;2023-06-10T00:56:56;17.00;99.90
14357;DHT22;7262;48.764;9.166;2023-06-10T00:59:23;17.00;99.90
14357;DHT22;7262;48.764;9.166;2023-06-10T01:01:50;16.90;99.90
14357;DHT22;7262;48.764;9.166;2023-06-10T01:04:21;16.80;99.90
14357;DHT22;7262;48.764;9.166;2023-06-10T01:06:51;16.70;99.90
14357;DHT22;7262;48.764;9.166;2023-06-10T01:09:21;16.60;99.90
14357;DHT22;7262;48.764;9.166;2023-06-10T01:11:52;16.60;99.90
14357;DHT22;7262;48.764;9.166;2023-06-10T01:14:22;16.60;99.90
14357;DHT22;7262;48.764;9.166;2023-06-10T01:16:49;16.60;99.90
14357;DHT22;7262;48.764;9.166;2023-06-10T01:19:22;16.50;99.90
14357;DHT22;7262;48.764;9.166;2023-06-10T01:21:53;16.50;99.90
14357;DHT22;7262;48.764;9.166;2023-06-10T01:24:20;16.50;99.90
14357;DHT22;7262;48.764;9.166;2023-06-10T01:26:48;16.40;99.90
14357;DHT22;7262;48.764;9.166;2023-06-10T01:29:17;16.40;99.90
14357;DHT22;7262;48.764;9.166;2023-06-10T01:31:47;16.30;99.90
14357;DHT22;7262;48.764;9.166;2023-06-10T01:34:17;16.30;99.90
14357;DHT22;7262;48.764;9.166;2023-06-10T01:36:46;16.30;99.90
14357;DHT22;7262;48.764;9.166;2023-06-10T01:39:15;16.40;99.90
14357;DHT22;7262;48.764;9.166;2023-06-10T01:41:42;16.40;99.90
14357;DHT22;7262;48.764;9.166;2023-06-10T01:44:09;16.30;99.90
14357;DHT22;7262;48.764;9.166;2023-06-10T01:46:38;16.30;99.90
14357;DHT22;7262;48.764;9.166;2023-06-10T01:49:05;16.20;99.90
14357;DHT22;7262;48.764;9.166;2023-06-10T01:51:32;16.30;99.90
14357;DHT22;7262;48.764;9.166;2023-06-10T01:53:59;16.20;99.90
14357;DHT22;7262;48.764;9.166;2023-06-10T01:56:28;16.20;99.90
14357;DHT22;7262;48.764;9.166;2023-06-10T01:58:54;16.20;99.90
14357;DHT22;7262;48.764;9.166;2023-06-10T02:01:24;16.10;99.90
14357;DHT22;7262;48.764;9.166;2023-06-10T02:03:51;16.10;99.90
14357;DHT22;7262;48.764;9.166;2023-06-10T02:06:18;16.10;99.90
14357;DHT22;7262;48.764;9.166;2023-06-10T02:08:45;16.00;99.90
14357;DHT22;7262;48.764;9.166;2023-06-10T02:11:11;15.90;99.90
14357;DHT22;7262;48.764;9.166;2023-06-10T02:13:40;15.90;99.90
14357;DHT22;7262;48.764;9.166;2023-06-10T02:16:06;15.90;99.90
14357;DHT22;7262;48.764;9.166;2023-06-10T02:18:34;15.90;99.90
14357;DHT22;7262;48.764;9.166;2023-06-10T02:21:01;15.80;99.90
14357;DHT22;7262;48.764;9.166;2023-06-10T02:23:28;15.90;99.90
14357;DHT22;7262;48.764;9.166;2023-06-10T02:25:55;15.90;99.90
14357;DHT22;7262;48.764;9.166;2023-06-10T02:28:21;15.80;99.90
14357;DHT22;7262;48.764;9.166;2023-06-10T02:30:51;15.80;99.90
14357;DHT22;7262;48.764;9.166;2023-06-10T02:33:18;15.80;99.90
14357;DHT22;7262;48.764;9.166;2023-06-10T02:35:45;15.90;99.90
14357;DHT22;7262;48.764;9.166;2023-06-10T02:38:12;15.90;99.90
14357;DHT22;7262;48.764;9.166;2023-06-10T02:40:39;15.90;99.90
14357;DHT22;7262;48.764;9.166;2023-06-10T02:43:05;15.90;99.90
14357;DHT22;7262;48.764;9.166;2023-06-10T02:45:32;15.90;99.90
14357;DHT22;7262;48.764;9.166;2023-06-10T02:48:00;15.90;99.90
14357;DHT22;7262;48.764;9.166;2023-06-10T02:50:27;15.80;99.90
14357;DHT22;7262;48.764;9.166;2023-06-10T02:52:54;15.60;99.90
14357;DHT22;7262;48.764;9.166;2023-06-10T02:55:21;15.50;99.90
14357;DHT22;7262;48.764;9.166;2023-06-10T02:57:47;15.50;99.90
14357;DHT22;7262;48.764;9.166;2023-06-10T03:00:14;15.40;99.90
14357;DHT22;7262;48.764;9.166;2023-06-10T03:02:42;15.40;99.90
14357;DHT22;7262;48.764;9.166;2023-06-10T03:05:12;15.50;99.90
14357;DHT22;7262;48.764;9.166;2023-06-10T03:07:39;15.40;99.90
14357;DHT22;7262;48.764;9.166;2023-06-10T03:10:06;15.40;99.90
14357;DHT22;7262;48.764;9.166;2023-06-10T03:12:33;15.40;99.90
14357;DHT22;7262;48.764;9.166;2023-06-10T03:15:00;15.50;99.90
14357;DHT22;7262;48.764;9.166;2023-06-10T03:17:29;15.50;99.90
14357;DHT22;7262;48.764;9.166;2023-06-10T03:19:57;15.50;99.90
14357;DHT22;7262;48.764;9.166;2023-06-10T03:22:25;15.60;99.90
14357;DHT22;7262;48.764;9.166;2023-06-10T03:24:51;15.40;99.90
14357;DHT22;7262;48.764;9.166;2023-06-10T03:27:18;15.50;99.90
14357;DHT22;7262;48.764;9.166;2023-06-10T03:29:45;15.40;99.90
14357;DHT22;7262;48.764;9.166;2023-06-10T03:32:12;15.40;99.90
14357;DHT22;7262;48.764;9.166;2023-06-10T03:34:40;15.30;99.90
14357;DHT22;7262;48.764;9.166;2023-06-10T03:37:07;15.30;99.90
14357;DHT22;7262;48.764;9.166;2023-06-10T03:39:38;15.20;99.90
14357;DHT22;7262;48.764;9.166;2023-06-10T03:42:05;15.20;99.90
14357;DHT22;7262;48.764;9.166;2023-06-10T03:44:32;15.20;99.90
14357;DHT22;7262;48.764;9.166;2023-06-10T03:47:00;15.20;99.90
14357;DHT22;7262;48.764;9.166;2023-06-10T03:49:28;15.20;99.90
14357;DHT22;7262;48.764;9.166;2023-06-10T03:51:56;15.10;99.90
14357;DHT22;7262;48.764;9.166;2023-06-10T03:54:23;15.30;99.90
14357;DHT22;7262;48.764;9.166;2023-06-10T03:56:51;15.40;99.90
14357;DHT22;7262;48.764;9.166;2023-06-10T03:59:18;15.30;99.90
14357;DHT22;7262;48.764;9.166;2023-06-10T04:01:44;15.40;99.90
14357;DHT22;7262;48.764;9.166;2023-06-10T04:04:13;15.50;99.90
14357;DHT22;7262;48.764;9.166;2023-06-10T04:06:40;15.60;99.90
14357;DHT22;7262;48.764;9.166;2023-06-10T04:09:09;15.70;99.90
14357;DHT22;7262;48.764;9.166;2023-06-10T04:11:35;15.70;99.90
14357;DHT22;7262;48.764;9.166;2023-06-10T04:14:03;15.70;99.90
14357;DHT22;7262;48.764;9.166;2023-06-10T04:16:30;15.60;99.90
14357;DHT22;7262;48.764;9.166;2023-06-10T04:18:58;15.80;99.90
14357;DHT22;7262;48.764;9.166;2023-06-10T04:21:25;15.80;99.90
14357;DHT22;7262;48.764;9.166;2023-06-10T04:23:52;15.90;99.90
14357;DHT22;7262;48.764;9.166;2023-06-10T04:26:19;16.00;99.90
14357;DHT22;7262;48.764;9.166;2023-06-10T04:28:47;16.00;99.90
14357;DHT22;7262;48.764;9.166;2023-06-10T04:31:15;16.10;99.90
14357;DHT22;7262;48.764;9.166;2023-06-10T04:33:41;16.30;99.90
14357;DHT22;7262;48.764;9.166;2023-06-10T04:36:08;16.30;99.90
14357;DHT22;7262;48.764;9.166;2023-06-10T04:38:36;16.50;99.90
14357;DHT22;7262;48.764;9.166;2023-06-10T04:41:03;16.70;99.90
14357;DHT22;7262;48.764;9.166;2023-06-10T04:43:30;16.80;99.90
14357;DHT22;7262;48.764;9.166;2023-06-10T04:45:57;16.90;99.90
14357;DHT22;7262;48.764;9.166;2023-06-10T04:48:26;16.80;99.90
14357;DHT22;7262;48.764;9.166;2023-06-10T04:50:56;16.80;99.90
14357;DHT22;7262;48.764;9.166;2023-06-10T04:53:31;16.90;99.90
14357;DHT22;7262;48.764;9.166;2023-06-10T04:55:58;17.00;99.90
14357;DHT22;7262;48.764;9.166;2023-06-10T04:58:25;17.00;99.90
14357;DHT22;7262;48.764;9.166;2023-06-10T05:00:52;17.20;99.90
14357;DHT22;7262;48.764;9.166;2023-06-10T05:03:19;17.20;99.90
14357;DHT22;7262;48.764;9.166;2023-06-10T05:05:47;17.40;99.90
14357;DHT22;7262;48.764;9.166;2023-06-10T05:08:14;17.60;99.90
14357;DHT22;7262;48.764;9.166;2023-06-10T05:10:40;17.70;99.90
14357;DHT22;7262;48.764;9.166;2023-06-10T05:13:07;18.00;99.90
14357;DHT22;7262;48.764;9.166;2023-06-10T05:15:34;18.20;99.90
14357;DHT22;7262;48.764;9.166;2023-06-10T05:18:01;18.30;99.90
14357;DHT22;7262;48.764;9.166;2023-06-10T05:20:28;18.50;99.90
14357;DHT22;7262;48.764;9.166;2023-06-10T05:22:56;18.70;99.90
14357;DHT22;7262;48.764;9.166;2023-06-10T05:25:24;18.90;99.90
14357;DHT22;7262;48.764;9.166;2023-06-10T05:27:51;19.00;99.90
14357;DHT22;7262;48.764;9.166;2023-06-10T05:30:19;19.20;99.90
14357;DHT22;7262;48.764;9.166;2023-06-10T05:32:47;19.40;99.90
14357;DHT22;7262;48.764;9.166;2023-06-10T05:35:16;19.90;99.90
14357;DHT22;7262;48.764;9.166;2023-06-10T05:37:43;21.00;99.90
14357;DHT22;7262;48.764;9.166;2023-06-10T05:40:12;22.40;99.90
14357;DHT22;7262;48.764;9.166;2023-06-10T05:42:38;23.60;99.90
14357;DHT22;7262;48.764;9.166;2023-06-10T05:45:06;24.60;99.90
14357;DHT22;7262;48.764;9.166;2023-06-10T05:47:32;25.80;99.90
14357;DHT22;7262;48.764;9.166;2023-06-10T05:49:59;26.90;99.90
14357;DHT22;7262;48.764;9.166;2023-06-10T05:52:26;27.60;99.90
14357;DHT22;7262;48.764;9.166;2023-06-10T05:54:53;28.10;99.90
14357;DHT22;7262;48.764;9.166;2023-06-10T05:57:22;28.40;99.90
14357;DHT22;7262;48.764;9.166;2023-06-10T05:59:49;28.80;99.90
14357;DHT22;7262;48.764;9.166;2023-06-10T06:02:16;28.80;99.90
14357;DHT22;7262;48.764;9.166;2023-06-10T06:04:42;28.20;99.90
14357;DHT22;7262;48.764;9.166;2023-06-10T06:07:09;28.00;99.90
14357;DHT22;7262;48.764;9.166;2023-06-10T06:09:36;28.60;99.90
14357;DHT22;7262;48.764;9.166;2023-06-10T06:12:03;28.80;99.90
14357;DHT22;7262;48.764;9.166;2023-06-10T06:14:32;29.00;99.90
14357;DHT22;7262;48.764;9.166;2023-06-10T06:17:03;28.20;99.90
14357;DHT22;7262;48.764;9.166;2023-06-10T06:19:30;27.70;99.90
14357;DHT22;7262;48.764;9.166;2023-06-10T06:21:57;27.60;99.90
14357;DHT22;7262;48.764;9.166;2023-06-10T06:24:24;27.40;99.90
14357;DHT22;7262;48.764;9.166;2023-06-10T06:26:51;28.00;99.90
14357;DHT22;7262;48.764;9.166;2023-06-10T06:29:17;27.90;99.90
14357;DHT22;7262;48.764;9.166;2023-06-10T06:31:46;29.10;99.90
14357;DHT22;7262;48.764;9.166;2023-06-10T06:34:12;29.70;99.90
14357;DHT22;7262;48.764;9.166;2023-06-10T06:36:39;29.30;99.90
14357;DHT22;7262;48.764;9.166;2023-06-10T06:39:06;30.30;99.90
14357;DHT22;7262;48.764;9.166;2023-06-10T06:41:33;30.50;99.90
14357;DHT22;7262;48.764;9.166;2023-06-10T06:43:59;31.00;99.90
14357;DHT22;7262;48.764;9.166;2023-06-10T06:46:27;31.40;99.90
14357;DHT22;7262;48.764;9.166;2023-06-10T06:48:55;32.00;99.90
14357;DHT22;7262;48.764;9.166;2023-06-10T06:51:22;32.30;99.90
14357;DHT22;7262;48.764;9.166;2023-06-10T06:53:48;32.00;99.90
14357;DHT22;7262;48.764;9.166;2023-06-10T06:56:16;31.70;99.90
14357;DHT22;7262;48.764;9.166;2023-06-10T06:58:43;31.80;99.90
14357;DHT22;7262;48.764;9.166;2023-06-10T07:01:10;31.70;99.90
14357;DHT22;7262;48.764;9.166;2023-06-10T07:03:38;31.80;99.90
14357;DHT22;7262;48.764;9.166;2023-06-10T07:06:06;31.50;99.90
14357;DHT22;7262;48.764;9.166;2023-06-10T07:08:33;31.70;99.90
14357;DHT22;7262;48.764;9.166;2023-06-10T07:11:00;31.90;99.90
14357;DHT22;7262;48.764;9.166;2023-06-10T07:13:27;31.50;99.90
14357;DHT22;7262;48.764;9.166;2023-06-10T07:15:55;31.30;99.90
14357;DHT22;7262;48.764;9.166;2023-06-10T07:18:24;31.60;99.90
14357;DHT22;7262;48.764;9.166;2023-06-10T07:20:51;32.00;99.90
14357;DHT22;7262;48.764;9.166;2023-06-10T07:23:20;32.60;99.90
14357;DHT22;7262;48.764;9.166;2023-06-10T07:25:47;33.50;99.10
14357;DHT22;7262;48.764;9.166;2023-06-10T07:28:16;32.70;99.20
14357;DHT22;7262;48.764;9.166;2023-06-10T07:30:43;32.40;99.90
14357;DHT22;7262;48.764;9.166;2023-06-10T07:33:10;32.80;99.10
14357;DHT22;7262;48.764;9.166;2023-06-10T07:35:37;33.60;98.10
14357;DHT22;7262;48.764;9.166;2023-06-10T07:38:04;34.10;97.40
14357;DHT22;7262;48.764;9.166;2023-06-10T07:40:33;33.30;97.50
14357;DHT22;7262;48.764;9.166;2023-06-10T07:43:00;32.60;98.80
14357;DHT22;7262;48.764;9.166;2023-06-10T07:45:26;32.60;98.30
14357;DHT22;7262;48.764;9.166;2023-06-10T07:47:53;33.20;97.70
14357;DHT22;7262;48.764;9.166;2023-06-10T07:50:22;33.00;98.40
14357;DHT22;7262;48.764;9.166;2023-06-10T07:52:49;32.60;97.50
14357;DHT22;7262;48.764;9.166;2023-06-10T07:55:16;33.20;97.20
14357;DHT22;7262;48.764;9.166;2023-06-10T07:57:44;33.50;96.90
14357;DHT22;7262;48.764;9.166;2023-06-10T08:00:11;33.30;97.00
14357;DHT22;7262;48.764;9.166;2023-06-10T08:02:38;32.10;98.30
14357;DHT22;7262;48.764;9.166;2023-06-10T08:05:06;31.40;99.40
14357;DHT22;7262;48.764;9.166;2023-06-10T08:07:33;31.60;99.60
14357;DHT22;7262;48.764;9.166;2023-06-10T08:10:00;32.30;98.90
14357;DHT22;7262;48.764;9.166;2023-06-10T08:12:27;32.30;98.60
14357;DHT22;7262;48.764;9.166;2023-06-10T08:14:56;31.40;99.50
14357;DHT22;7262;48.764;9.166;2023-06-10T08:17:23;30.90;99.90
14357;DHT22;7262;48.764;9.166;2023-06-10T08:19:50;29.90;99.90
14357;DHT22;7262;48.764;9.166;2023-06-10T08:22:17;30.10;99.90
14357;DHT22;7262;48.764;9.166;2023-06-10T08:24:45;30.50;99.90
14357;DHT22;7262;48.764;9.166;2023-06-10T08:27:11;30.80;99.90
14357;DHT22;7262;48.764;9.166;2023-06-10T08:29:38;30.80;99.90
14357;DHT22;7262;48.764;9.166;2023-06-10T08:32:07;30.80;99.90
14357;DHT22;7262;48.764;9.166;2023-06-10T08:34:35;31.50;99.90
14357;DHT22;7262;48.764;9.166;2023-06-10T08:37:07;31.90;99.60
14357;DHT22;7262;48.764;9.166;2023-06-10T08:39:34;32.90;98.80
14357;DHT22;7262;48.764;9.166;2023-06-10T08:42:17;32.20;98.70
14357;DHT22;7262;48.764;9.166;2023-06-10T08:44:52;32.00;99.60
14357;DHT22;7262;48.764;9.166;2023-06-10T08:47:26;31.60;99.60
14357;DHT22;7262;48.764;9.166;2023-06-10T08:49:56;31.90;99.00
14357;DHT22;7262;48.764;9.166;2023-06-10T08:52:28;31.00;99.90
14357;DHT22;7262;48.764;9.166;2023-06-10T08:54:57;32.10;98.70
14357;DHT22;7262;48.764;9.166;2023-06-10T08:57:26;32.40;98.30
14357;DHT22;7262;48.764;9.166;2023-06-10T08:59:53;32.70;97.80
14357;DHT22;7262;48.764;9.166;2023-06-10T09:02:21;32.30;98.10
14357;DHT22;7262;48.764;9.166;2023-06-10T09:04:50;32.70;97.30
14357;DHT22;7262;48.764;9.166;2023-06-10T09:07:17;32.80;97.00
14357;DHT22;7262;48.764;9.166;2023-06-10T09:09:48;33.00;96.60
14357;DHT22;7262;48.764;9.166;2023-06-10T09:12:18;33.30;96.10
14357;DHT22;7262;48.764;9.166;2023-06-10T09:14:48;33.00;95.80
14357;DHT22;7262;48.764;9.166;2023-06-10T09:17:16;32.90;96.00
14357;DHT22;7262;48.764;9.166;2023-06-10T09:19:43;33.30;95.40
14357;DHT22;7262;48.764;9.166;2023-06-10T09:22:13;33.00;95.10
14357;DHT22;7262;48.764;9.166;2023-06-10T09:24:39;32.60;95.50
14357;DHT22;7262;48.764;9.166;2023-06-10T09:27:08;32.90;95.40
14357;DHT22;7262;48.764;9.166;2023-06-10T09:29:45;33.00;95.50
14357;DHT22;7262;48.764;9.166;2023-06-10T09:32:12;33.00;95.90
14357;DHT22;7262;48.764;9.166;2023-06-10T09:34:40;32.60;95.90
14357;DHT22;7262;48.764;9.166;2023-06-10T09:37:07;32.50;96.70
14357;DHT22;7262;48.764;9.166;2023-06-10T09:42:18;32.70;96.10
14357;DHT22;7262;48.764;9.166;2023-06-10T09:44:49;32.30;96.30
14357;DHT22;7262;48.764;9.166;2023-06-10T09:47:19;32.00;96.80
14357;DHT22;7262;48.764;9.166;2023-06-10T09:49:46;32.20;97.00
14357;DHT22;7262;48.764;9.166;2023-06-10T09:52:13;32.70;96.10
14357;DHT22;7262;48.764;9.166;2023-06-10T09:54:40;32.70;96.10
14357;DHT22;7262;48.764;9.166;2023-06-10T09:57:08;33.10;95.50
14357;DHT22;7262;48.764;9.166;2023-06-10T09:59:37;33.70;95.00
14357;DHT22;7262;48.764;9.166;2023-06-10T10:02:04;33.30;94.50
14357;DHT22;7262;48.764;9.166;2023-06-10T10:04:31;32.80;95.00
14357;DHT22;7262;48.764;9.166;2023-06-10T10:06:59;32.40;95.50
14357;DHT22;7262;48.764;9.166;2023-06-10T10:09:26;32.50;95.80
14357;DHT22;7262;48.764;9.166;2023-06-10T10:11:54;31.70;96.10
14357;DHT22;7262;48.764;9.166;2023-06-10T10:14:21;31.30;96.70
14357;DHT22;7262;48.764;9.166;2023-06-10T10:16:50;30.60;98.20
14357;DHT22;7262;48.764;9.166;2023-06-10T10:21:53;29.00;99.90
14357;DHT22;7262;48.764;9.166;2023-06-10T10:24:22;28.90;99.90
14357;DHT22;7262;48.764;9.166;2023-06-10T10:26:50;28.40;99.90
14357;DHT22;7262;48.764;9.166;2023-06-10T10:29:22;28.70;99.90
14357;DHT22;7262;48.764;9.166;2023-06-10T10:31:51;29.40;99.90
14357;DHT22;7262;48.764;9.166;2023-06-10T10:34:19;29.50;99.90
14357;DHT22;7262;48.764;9.166;2023-06-10T10:36:48;29.70;99.90
14357;DHT22;7262;48.764;9.166;2023-06-10T10:39:15;29.90;99.20
14357;DHT22;7262;48.764;9.166;2023-06-10T10:41:43;29.50;99.60
14357;DHT22;7262;48.764;9.166;2023-06-10T10:44:10;29.70;99.90
14357;DHT22;7262;48.764;9.166;2023-06-10T10:46:44;30.00;99.90
14357;DHT22;7262;48.764;9.166;2023-06-10T10:49:18;30.70;99.50
14357;DHT22;7262;48.764;9.166;2023-06-10T10:51:55;31.30;98.60
14357;DHT22;7262;48.764;9.166;2023-06-10T10:54:29;32.10;97.80
14357;DHT22;7262;48.764;9.166;2023-06-10T10:57:16;32.60;95.90
14357;DHT22;7262;48.764;9.166;2023-06-10T10:59:44;32.30;95.50
14357;DHT22;7262;48.764;9.166;2023-06-10T11:02:14;32.80;94.60
14357;DHT22;7262;48.764;9.166;2023-06-10T11:04:46;33.30;93.80
14357;DHT22;7262;48.764;9.166;2023-06-10T11:07:13;32.70;94.90
14357;DHT22;7262;48.764;9.166;2023-06-10T11:15:24;32.90;94.20
14357;DHT22;7262;48.764;9.166;2023-06-10T11:18:08;32.70;94.60
14357;DHT22;7262;48.764;9.166;2023-06-10T11:20:50;31.70;95.30
14357;DHT22;7262;48.764;9.166;2023-06-10T11:23:32;31.30;96.40
14357;DHT22;7262;48.764;9.166;2023-06-10T11:26:11;30.40;96.90
14357;DHT22;7262;48.764;9.166;2023-06-10T11:28:41;30.10;98.80
14357;DHT22;7262;48.764;9.166;2023-06-10T11:31:09;30.10;98.30
14357;DHT22;7262;48.764;9.166;2023-06-10T11:33:40;30.50;98.20
14357;DHT22;7262;48.764;9.166;2023-06-10T11:36:09;31.20;98.10
14357;DHT22;7262;48.764;9.166;2023-06-10T11:38:36;31.40;96.60
14357;DHT22;7262;48.764;9.166;2023-06-10T11:41:03;30.20;98.00
14357;DHT22;7262;48.764;9.166;2023-06-10T11:43:30;31.30;97.20
14357;DHT22;7262;48.764;9.166;2023-06-10T11:45:59;31.50;96.50
14357;DHT22;7262;48.764;9.166;2023-06-10T11:48:27;32.20;95.60
14357;DHT22;7262;48.764;9.166;2023-06-10T11:50:55;32.80;95.00
14357;DHT22;7262;48.764;9.166;2023-06-10T11:53:24;32.80;94.40
14357;DHT22;7262;48.764;9.166;2023-06-10T11:55:51;32.30;95.20
14357;DHT22;7262;48.764;9.166;2023-06-10T11:58:19;32.70;94.50
14357;DHT22;7262;48.764;9.166;2023-06-10T12:00:46;33.10;93.80
14357;DHT22;7262;48.764;9.166;2023-06-10T12:03:13;33.20;93.80
14357;DHT22;7262;48.764;9.166;2023-06-10T12:05:40;33.50;93.20
14357;DHT22;7262;48.764;9.166;2023-06-10T12:08:10;33.40;93.00
14357;DHT22;7262;48.764;9.166;2023-06-10T12:10:44;32.40;94.70
14357;DHT22;7262;48.764;9.166;2023-06-10T12:13:10;31.70;95.20
14357;DHT22;7262;48.764;9.166;2023-06-10T12:15:38;31.10;95.80
14357;DHT22;7262;48.764;9.166;2023-06-10T12:18:04;30.40;96.20
14357;DHT22;7262;48.764;9.166;2023-06-10T12:20:31;30.40;96.30
14357;DHT22;7262;48.764;9.166;2023-06-10T12:22:59;30.50;96.40
14357;DHT22;7262;48.764;9.166;2023-06-10T12:25:26;31.20;96.10
14357;DHT22;7262;48.764;9.166;2023-06-10T12:27:55;31.00;96.00
14357;DHT22;7262;48.764;9.166;2023-06-10T12:30:23;31.30;95.70
14357;DHT22;7262;48.764;9.166;2023-06-10T12:32:51;30.70;96.00
14357;DHT22;7262;48.764;9.166;2023-06-10T12:35:19;30.20;96.30
14357;DHT22;7262;48.764;9.166;2023-06-10T12:37:54;29.40;97.10
14357;DHT22;7262;48.764;9.166;2023-06-10T12:40:25;29.20;97.60
14357;DHT22;7262;48.764;9.166;2023-06-10T12:42:54;29.20;97.10
14357;DHT22;7262;48.764;9.166;2023-06-10T12:45:27;29.10;97.30
14357;DHT22;7262;48.764;9.166;2023-06-10T12:48:03;28.90;97.60
14357;DHT22;7262;48.764;9.166;2023-06-10T12:50:31;29.10;98.00
14357;DHT22;7262;48.764;9.166;2023-06-10T12:52:58;29.20;97.60
14357;DHT22;7262;48.764;9.166;2023-06-10T12:55:25;29.20;97.50
14357;DHT22;7262;48.764;9.166;2023-06-10T12:57:55;29.10;97.70
14357;DHT22;7262;48.764;9.166;2023-06-10T13:00:22;29.70;97.30
14357;DHT22;7262;48.764;9.166;2023-06-10T13:02:51;31.40;96.20
14357;DHT22;7262;48.764;9.166;2023-06-10T13:05:18;32.40;94.40
14357;DHT22;7262;48.764;9.166;2023-06-10T13:07:47;33.60;93.90
14357;DHT22;7262;48.764;9.166;2023-06-10T13:10:13;33.40;92.70
14357;DHT22;7262;48.764;9.166;2023-06-10T13:12:41;33.00;93.10
14357;DHT22;7262;48.764;9.166;2023-06-10T13:15:10;32.00;93.60
14357;DHT22;7262;48.764;9.166;2023-06-10T13:17:37;31.40;94.70
14357;DHT22;7262;48.764;9.166;2023-06-10T13:20:06;31.70;94.50
14357;DHT22;7262;48.764;9.166;2023-06-10T13:22:33;32.80;94.00
14357;DHT22;7262;48.764;9.166;2023-06-10T13:25:01;33.20;93.00
14357;DHT22;7262;48.764;9.166;2023-06-10T13:27:28;33.80;92.70
14357;DHT22;7262;48.764;9.166;2023-06-10T13:29:55;34.00;92.00
14357;DHT22;7262;48.764;9.166;2023-06-10T13:32:23;34.40;92.00
14357;DHT22;7262;48.764;9.166;2023-06-10T13:34:50;34.10;91.60
14357;DHT22;7262;48.764;9.166;2023-06-10T13:37:18;34.80;90.90
14357;DHT22;7262;48.764;9.166;2023-06-10T13:39:45;34.90;90.70
14357;DHT22;7262;48.764;9.166;2023-06-10T13:42:14;35.00;89.80
14357;DHT22;7262;48.764;9.166;2023-06-10T13:44:40;34.90;90.00
14357;DHT22;7262;48.764;9.166;2023-06-10T13:47:07;35.70;89.00
14357;DHT22;7262;48.764;9.166;2023-06-10T13:49:35;35.40;89.50
14357;DHT22;7262;48.764;9.166;2023-06-10T13:52:02;35.60;88.30
14357;DHT22;7262;48.764;9.166;2023-06-10T13:54:29;34.30;90.00
14357;DHT22;7262;48.764;9.166;2023-06-10T13:56:56;33.30;90.70
14357;DHT22;7262;48.764;9.166;2023-06-10T13:59:23;32.20;91.60
14357;DHT22;7262;48.764;9.166;2023-06-10T14:01:50;32.50;91.60
14357;DHT22;7262;48.764;9.166;2023-06-10T14:04:17;33.10;91.20
14357;DHT22;7262;48.764;9.166;2023-06-10T14:06:45;32.90;91.10
14357;DHT22;7262;48.764;9.166;2023-06-10T14:09:13;32.50;91.50
14357;DHT22;7262;48.764;9.166;2023-06-10T14:11:43;31.70;91.90
14357;DHT22;7262;48.764;9.166;2023-06-10T14:14:10;31.20;92.30
14357;DHT22;7262;48.764;9.166;2023-06-10T14:16:37;31.30;92.90
14357;DHT22;7262;48.764;9.166;2023-06-10T14:19:04;32.60;91.70
14357;DHT22;7262;48.764;9.166;2023-06-10T14:21:31;33.10;91.40
14357;DHT22;7262;48.764;9.166;2023-06-10T14:24:00;33.20;91.20
14357;DHT22;7262;48.764;9.166;2023-06-10T14:26:27;33.70;91.00
14357;DHT22;7262;48.764;9.166;2023-06-10T14:28:54;33.50;90.10
14357;DHT22;7262;48.764;9.166;2023-06-10T14:31:20;32.80;91.10
14357;DHT22;7262;48.764;9.166;2023-06-10T14:33:47;32.10;91.40
14357;DHT22;7262;48.764;9.166;2023-06-10T14:36:14;31.40;91.80
14357;DHT22;7262;48.764;9.166;2023-06-10T14:38:41;30.90;92.40
14357;DHT22;7262;48.764;9.166;2023-06-10T14:41:09;30.40;93.00
14357;DHT22;7262;48.764;9.166;2023-06-10T14:43:39;30.20;93.00
14357;DHT22;7262;48.764;9.166;2023-06-10T14:46:14;30.20;92.70
14357;DHT22;7262;48.764;9.166;2023-06-10T14:48:41;30.10;93.30
14357;DHT22;7262;48.764;9.166;2023-06-10T14:51:08;30.30;93.70
14357;DHT22;7262;48.764;9.166;2023-06-10T14:53:35;30.70;93.20
14357;DHT22;7262;48.764;9.166;2023-06-10T14:56:01;30.70;93.30
14357;DHT22;7262;48.764;9.166;2023-06-10T14:58:30;30.70;93.70
14357;DHT22;7262;48.764;9.166;2023-06-10T15:00:58;30.30;94.00
14357;DHT22;7262;48.764;9.166;2023-06-10T15:03:24;29.90;94.80
14357;DHT22;7262;48.764;9.166;2023-06-10T15:05:51;29.70;94.50
14357;DHT22;7262;48.764;9.166;2023-06-10T15:08:18;29.30;94.50
14357;DHT22;7262;48.764;9.166;2023-06-10T15:10:45;29.10;95.30
14357;DHT22;7262;48.764;9.166;2023-06-10T15:13:13;28.90;95.70
14357;DHT22;7262;48.764;9.166;2023-06-10T15:15:42;29.00;95.90
14357;DHT22;7262;48.764;9.166;2023-06-10T15:18:11;29.30;95.30
14357;DHT22;7262;48.764;9.166;2023-06-10T15:20:40;29.40;95.40
14357;DHT22;7262;48.764;9.166;2023-06-10T15:23:06;29.50;95.70
14357;DHT22;7262;48.764;9.166;2023-06-10T15:25:34;29.70;95.30
14357;DHT22;7262;48.764;9.166;2023-06-10T15:28:01;29.70;95.40
14357;DHT22;7262;48.764;9.166;2023-06-10T15:30:28;29.20;95.70
14357;DHT22;7262;48.764;9.166;2023-06-10T15:32:56;28.80;96.50
14357;DHT22;7262;48.764;9.166;2023-06-10T15:35:23;28.50;97.10
14357;DHT22;7262;48.764;9.166;2023-06-10T15:37:52;28.70;97.60
14357;DHT22;7262;48.764;9.166;2023-06-10T15:40:19;29.10;96.30
14357;DHT22;7262;48.764;9.166;2023-06-10T15:42:47;29.00;96.40
14357;DHT22;7262;48.764;9.166;2023-06-10T15:45:14;29.40;96.00
14357;DHT22;7262;48.764;9.166;2023-06-10T15:47:41;29.60;95.20
14357;DHT22;7262;48.764;9.166;2023-06-10T15:50:09;29.90;94.70
14357;DHT22;7262;48.764;9.166;2023-06-10T15:52:36;29.90;94.70
14357;DHT22;7262;48.764;9.166;2023-06-10T15:55:03;30.10;94.30
14357;DHT22;7262;48.764;9.166;2023-06-10T15:57:31;30.00;94.70
14357;DHT22;7262;48.764;9.166;2023-06-10T15:59:58;29.70;94.90
14357;DHT22;7262;48.764;9.166;2023-06-10T16:02:24;29.50;95.40